Time;durP1;ratioP1;P1;durP2;ratioP2;P2;SDS_P1;SDS_P2;PMS_P1;PMS_P2;Temp;Humidity;BMP_temperature;BMP_pressure;BME280_temperature;BME280_humidity;BME280_pressure;Samples;Min_cycle;Max_cycle;Signal;HPM_P1;HPM_P2
2022/12/08 00:01:53;;;;;;;16.90;13.97;;;;;;;6.85;59.47;97423.81;8379726;28;20280;-74
2022/12/08 00:10:16;;;;;;;14.90;13.30;;;;;;;6.89;59.16;97421.94;8386466;28;20286;-75
2022/12/08 00:14:42;;;;;;;16.27;14.07;;;;;;;6.75;59.08;97416.47;8386428;28;20454;-74
2022/12/08 00:18:45;;;;;;;17.10;13.20;;;;;;;6.84;58.91;97416.13;8386395;28;20233;-74
2022/12/08 00:22:47;;;;;;;14.57;12.77;;;;;;;6.89;58.88;97411.63;8385926;28;20299;-74
2022/12/08 00:26:50;;;;;;;15.70;13.60;;;;;;;6.91;58.75;97407.28;8386134;28;20251;-74
2022/12/08 00:30:54;;;;;;;15.60;13.67;;;;;;;6.84;58.53;97418.72;8385529;28;20232;-73
2022/12/08 00:34:57;;;;;;;15.33;12.73;;;;;;;6.91;58.76;97409.00;8385597;28;20445;-74
2022/12/08 00:39:00;;;;;;;15.87;13.23;;;;;;;6.83;58.69;97405.00;8385519;28;20236;-74
2022/12/08 00:43:03;;;;;;;15.07;13.43;;;;;;;6.86;58.78;97404.03;8385278;28;20244;-74
2022/12/08 00:47:07;;;;;;;15.73;13.03;;;;;;;6.85;58.94;97397.22;8385363;28;20233;-74
2022/12/08 00:51:10;;;;;;;15.63;13.30;;;;;;;6.91;58.42;97409.88;8385344;28;20270;-74
2022/12/08 00:55:12;;;;;;;17.30;14.10;;;;;;;6.75;58.65;97401.88;8385071;28;20286;-74
2022/12/08 00:59:15;;;;;;;15.17;13.57;;;;;;;6.60;59.54;97403.28;8385013;28;20270;-74
2022/12/08 01:03:19;;;;;;;14.40;12.90;;;;;;;6.79;58.66;97395.72;8384858;28;20232;-73
2022/12/08 01:07:22;;;;;;;16.57;14.13;;;;;;;6.72;58.41;97403.72;8384499;28;20229;-73
2022/12/08 01:11:25;;;;;;;16.37;13.50;;;;;;;6.55;58.79;97402.63;8384781;28;20248;-74
2022/12/08 01:15:28;;;;;;;16.07;14.00;;;;;;;6.73;58.11;97402.84;8384626;28;20240;-73
2022/12/08 01:19:32;;;;;;;15.77;14.00;;;;;;;6.76;58.01;97406.13;8384125;28;20279;-74
2022/12/08 01:23:34;;;;;;;16.63;14.80;;;;;;;6.70;58.09;97403.81;8384272;28;20225;-73
2022/12/08 01:27:37;;;;;;;15.57;13.63;;;;;;;6.80;57.67;97407.69;8384182;28;20290;-73
2022/12/08 01:31:40;;;;;;;15.43;13.33;;;;;;;6.87;57.66;97404.88;8383934;28;20224;-73
2022/12/08 01:35:44;;;;;;;16.43;14.33;;;;;;;6.80;57.95;97409.44;8384001;28;20229;-74
2022/12/08 01:39:47;;;;;;;15.50;13.83;;;;;;;6.74;57.68;97407.06;8383491;28;20228;-73
2022/12/08 01:43:56;;;;;;;17.47;13.83;;;;;;;6.63;57.70;97394.63;8383721;28;20228;-73
2022/12/08 01:48:03;;;;;;;15.87;13.23;;;;;;;6.68;57.79;97404.72;8382971;28;20302;-74
2022/12/08 01:52:12;;;;;;;16.50;13.80;;;;;;;6.72;57.77;97396.00;8383083;28;20233;-73
2022/12/08 01:56:19;;;;;;;14.57;13.07;;;;;;;6.68;57.57;97386.72;8383285;28;20461;-73
2022/12/08 02:00:22;;;;;;;16.37;13.73;;;;;;;6.58;57.78;97381.09;8383278;28;20221;-73
2022/12/08 02:04:25;;;;;;;18.70;14.83;;;;;;;6.29;58.34;97387.31;8383183;28;20221;-74
2022/12/08 02:08:29;;;;;;;17.33;14.67;;;;;;;6.43;58.08;97383.31;8382805;28;20517;-74
2022/12/08 02:12:32;;;;;;;16.50;14.37;;;;;;;6.14;58.84;97374.09;8383304;28;20236;-74
2022/12/08 02:16:38;;;;;;;17.33;15.17;;;;;;;6.34;58.27;97370.84;8382713;28;20271;-75
2022/12/08 02:20:46;;;;;;;15.93;13.57;;;;;;;6.35;58.40;97371.66;8382407;28;20232;-73
2022/12/08 02:24:54;;;;;;;16.00;14.03;;;;;;;6.25;58.33;97366.00;8382244;28;20225;-73
2022/12/08 02:29:16;;;;;;;15.80;13.43;;;;;;;6.32;57.59;97356.31;8381033;28;20516;-73
2022/12/08 02:33:48;;;;;;;15.63;13.90;;;;;;;6.11;58.34;97356.25;8382019;28;20427;-73
2022/12/08 02:38:00;;;;;;;16.67;13.53;;;;;;;6.31;57.82;97352.09;8381727;28;20282;-73
2022/12/08 02:42:09;;;;;;;16.83;14.97;;;;;;;6.07;58.52;97352.94;8381593;28;20237;-74
2022/12/08 02:46:14;;;;;;;15.93;14.00;;;;;;;6.25;58.24;97341.13;8381518;28;20282;-73
2022/12/08 02:50:17;;;;;;;16.73;14.37;;;;;;;6.16;58.35;97346.59;8381668;28;20334;-73
2022/12/08 02:54:21;;;;;;;18.30;14.90;;;;;;;6.23;57.54;97334.38;8381277;28;20225;-74
2022/12/08 02:58:48;;;;;;;18.00;14.90;;;;;;;5.98;58.36;97332.69;8381322;28;20229;-74
2022/12/08 03:03:00;;;;;;;17.00;14.03;;;;;;;6.21;57.90;97325.88;8372306;28;20229;-74
2022/12/08 03:07:06;;;;;;;16.80;15.00;;;;;;;6.28;57.58;97326.47;8380784;28;20221;-74
2022/12/08 03:11:14;;;;;;;17.47;14.73;;;;;;;6.28;58.19;97323.91;8380806;28;20513;-73
2022/12/08 03:15:19;;;;;;;15.70;14.00;;;;;;;6.25;57.51;97300.00;8380832;28;20316;-74
2022/12/08 03:19:25;;;;;;;17.70;14.30;;;;;;;6.28;57.65;97303.34;8380840;28;20220;-74
2022/12/08 03:23:28;;;;;;;16.70;14.90;;;;;;;6.49;57.14;97317.13;8380618;28;20232;-74
2022/12/08 03:27:32;;;;;;;19.57;14.77;;;;;;;6.39;57.92;97314.06;8379744;28;20263;-74
2022/12/08 03:31:39;;;;;;;16.13;13.90;;;;;;;6.49;57.51;97323.09;8379629;28;20651;-74
2022/12/08 03:35:43;;;;;;;16.63;14.23;;;;;;;6.44;57.67;97310.41;8379414;28;20339;-73
2022/12/08 03:39:46;;;;;;;16.03;13.80;;;;;;;6.45;57.20;97304.41;8379258;28;20228;-73
2022/12/08 03:43:50;;;;;;;16.53;14.73;;;;;;;6.41;56.96;97305.38;8379021;28;20537;-73
2022/12/08 03:47:53;;;;;;;15.77;14.07;;;;;;;6.48;57.13;97312.88;8378942;28;20232;-73
2022/12/08 03:51:56;;;;;;;17.30;14.40;;;;;;;6.39;57.34;97304.59;8379215;28;20224;-74
2022/12/08 03:55:58;;;;;;;17.90;14.50;;;;;;;6.37;57.46;97295.28;8379074;28;20320;-73
2022/12/08 04:00:03;;;;;;;17.10;15.03;;;;;;;6.42;56.99;97294.22;8378861;28;20314;-74
2022/12/08 04:04:06;;;;;;;16.23;13.53;;;;;;;6.30;57.53;97278.41;8378985;28;20228;-74
2022/12/08 04:08:09;;;;;;;16.47;13.60;;;;;;;6.40;57.08;97283.16;8378920;28;20322;-73
2022/12/08 04:12:12;;;;;;;16.43;13.73;;;;;;;6.44;57.27;97284.69;8379017;28;20247;-74
2022/12/08 04:16:18;;;;;;;17.93;14.70;;;;;;;6.33;56.69;97276.56;8379045;28;20220;-73
2022/12/08 04:20:22;;;;;;;18.20;14.43;;;;;;;6.38;56.92;97282.38;8378912;28;20233;-74
2022/12/08 04:24:25;;;;;;;15.73;13.97;;;;;;;6.43;57.44;97280.44;8378686;28;20242;-74
2022/12/08 04:28:28;;;;;;;17.37;13.87;;;;;;;6.32;57.58;97274.03;8378636;28;20400;-74
2022/12/08 04:32:32;;;;;;;17.00;14.17;;;;;;;6.47;58.08;97276.00;8378676;28;20232;-74
2022/12/08 04:36:35;;;;;;;16.57;14.27;;;;;;;6.35;57.83;97276.50;8378394;28;20467;-74
2022/12/08 04:40:38;;;;;;;16.23;14.50;;;;;;;6.39;58.12;97271.16;8378474;28;20253;-74
2022/12/08 04:44:41;;;;;;;16.70;14.50;;;;;;;6.44;57.81;97266.69;8378317;28;20279;-73
2022/12/08 04:48:45;;;;;;;16.23;13.97;;;;;;;6.55;57.26;97266.28;8378175;28;20429;-73
2022/12/08 04:52:48;;;;;;;17.07;14.97;;;;;;;6.52;57.50;97270.72;8379914;28;20252;-74
2022/12/08 04:56:50;;;;;;;16.67;14.40;;;;;;;6.52;57.14;97261.25;8384190;28;20229;-74
2022/12/08 05:00:53;;;;;;;19.27;15.83;;;;;;;6.56;56.90;97261.97;8383743;28;20240;-73
2022/12/08 05:04:57;;;;;;;18.67;15.90;;;;;;;6.50;57.43;97264.78;8384161;28;20246;-73
2022/12/08 05:09:00;;;;;;;20.50;16.07;;;;;;;6.55;57.65;97266.28;8383833;28;20536;-74
2022/12/08 05:13:02;;;;;;;18.20;16.07;;;;;;;6.44;57.72;97261.56;8383744;28;20403;-73
2022/12/08 05:17:05;;;;;;;17.67;14.60;;;;;;;6.32;57.84;97272.31;8384002;28;20398;-74
2022/12/08 05:21:13;;;;;;;16.10;14.07;;;;;;;6.26;58.09;97268.25;8383509;28;20432;-73
2022/12/08 05:25:16;;;;;;;18.93;15.23;;;;;;;6.34;57.55;97265.38;8383502;28;20225;-73
2022/12/08 05:29:18;;;;;;;18.80;15.63;;;;;;;6.34;58.17;97262.81;8383450;28;20317;-74
2022/12/08 05:33:21;;;;;;;24.43;19.97;;;;;;;6.41;57.87;97263.41;8383408;28;20220;-74
2022/12/08 05:37:25;;;;;;;30.57;22.83;;;;;;;6.28;57.90;97260.47;8383068;28;20225;-73
2022/12/08 05:41:28;;;;;;;28.87;21.37;;;;;;;6.18;57.54;97259.16;8382902;28;20225;-74
2022/12/08 05:45:31;;;;;;;26.70;20.23;;;;;;;6.08;57.81;97253.50;8382661;28;20232;-74
2022/12/08 05:49:34;;;;;;;20.70;16.87;;;;;;;6.26;57.62;97251.97;8382670;28;20248;-73
2022/12/08 05:53:38;;;;;;;19.23;15.77;;;;;;;6.39;57.21;97250.59;8382309;28;20224;-73
2022/12/08 05:57:41;;;;;;;18.13;14.80;;;;;;;6.23;57.82;97255.50;8382339;28;20227;-73
2022/12/08 06:01:44;;;;;;;17.57;14.97;;;;;;;6.35;57.94;97255.94;8382429;28;20241;-74
2022/12/08 06:05:47;;;;;;;15.83;13.90;;;;;;;6.51;58.08;97258.72;8382460;28;20563;-73
2022/12/08 06:09:52;;;;;;;18.93;14.93;;;;;;;6.52;57.14;97257.84;8382238;28;20248;-73
2022/12/08 06:13:55;;;;;;;18.27;14.37;;;;;;;6.47;57.35;97250.28;8381666;28;20244;-73
2022/12/08 06:17:58;;;;;;;17.27;14.23;;;;;;;6.50;57.51;97250.19;8381925;28;20225;-73
2022/12/08 06:22:01;;;;;;;16.40;14.07;;;;;;;6.54;57.23;97251.72;8381494;28;20260;-73
2022/12/08 06:26:07;;;;;;;18.93;14.93;;;;;;;6.50;57.43;97255.31;8381854;28;20235;-73
2022/12/08 06:30:10;;;;;;;22.40;17.50;;;;;;;6.40;56.68;97254.03;8381590;28;20238;-73
2022/12/08 06:34:13;;;;;;;22.47;16.43;;;;;;;6.34;57.33;97261.97;8381606;28;20237;-72
2022/12/08 06:38:16;;;;;;;18.13;15.73;;;;;;;6.41;57.69;97255.69;8381489;28;20279;-72
2022/12/08 06:46:55;;;;;;;22.53;17.27;;;;;;;6.50;57.44;97257.91;8278507;28;20476;-73
2022/12/08 06:50:58;;;;;;;18.37;16.07;;;;;;;6.45;57.53;97252.94;8324846;28;20244;-73
2022/12/08 06:55:01;;;;;;;19.07;15.87;;;;;;;6.50;57.39;97260.47;8380272;28;20225;-73
2022/12/08 06:59:05;;;;;;;20.67;15.70;;;;;;;6.46;57.00;97264.91;8380354;28;20287;-73
2022/12/08 07:03:08;;;;;;;18.47;14.80;;;;;;;6.54;57.16;97259.44;8380109;28;20290;-74
2022/12/08 07:07:11;;;;;;;19.17;15.77;;;;;;;6.38;57.58;97256.66;8379475;28;20316;-73
2022/12/08 07:11:14;;;;;;;20.10;16.37;;;;;;;6.51;57.21;97248.44;8379535;28;20224;-72
2022/12/08 07:15:25;;;;;;;23.67;15.67;;;;;;;6.41;57.38;97248.78;8379153;28;20247;-73
2022/12/08 07:19:28;;;;;;;18.10;14.63;;;;;;;6.46;57.33;97270.03;8379486;28;20236;-73
2022/12/08 07:23:30;;;;;;;17.17;14.03;;;;;;;6.24;57.74;97258.91;8379632;28;20512;-73
2022/12/08 07:27:33;;;;;;;19.07;14.43;;;;;;;6.28;57.89;97265.59;8379850;28;20329;-73
2022/12/08 07:31:38;;;;;;;18.97;15.60;;;;;;;6.55;57.15;97270.56;8379551;28;20233;-73
2022/12/08 07:35:40;;;;;;;19.70;15.23;;;;;;;6.41;57.22;97269.38;8379334;28;20438;-73
2022/12/08 07:39:51;;;;;;;19.87;14.77;;;;;;;6.33;57.31;97268.00;8379649;28;20232;-73
2022/12/08 07:43:54;;;;;;;20.73;15.03;;;;;;;6.53;57.51;97267.22;8378922;28;20228;-72
2022/12/08 07:47:58;;;;;;;19.47;14.43;;;;;;;6.34;57.29;97259.38;8379068;28;20250;-73
2022/12/08 07:52:01;;;;;;;15.23;13.40;;;;;;;6.13;58.17;97261.91;8379291;28;20228;-73
2022/12/08 07:56:05;;;;;;;18.43;15.10;;;;;;;6.37;57.31;97257.53;8378910;28;20248;-73
2022/12/08 08:00:10;;;;;;;18.77;14.80;;;;;;;6.49;57.30;97257.97;8378910;28;20405;-73
2022/12/08 08:04:14;;;;;;;17.37;14.50;;;;;;;6.63;56.32;97250.53;8378318;28;20524;-72
2022/12/08 08:08:18;;;;;;;18.37;15.07;;;;;;;6.43;57.44;97265.00;8377931;28;20581;-73
2022/12/08 08:12:20;;;;;;;19.13;14.93;;;;;;;6.60;56.90;97271.25;8378268;28;20225;-73
2022/12/08 08:16:33;;;;;;;20.60;14.33;;;;;;;6.63;56.91;97263.41;8378287;28;20228;-73
2022/12/08 08:20:41;;;;;;;21.43;15.47;;;;;;;6.97;56.49;97273.19;8377785;28;20224;-73
2022/12/08 08:24:44;;;;;;;17.23;14.23;;;;;;;7.02;56.33;97262.69;8378030;28;20224;-73
2022/12/08 08:28:48;;;;;;;17.07;14.60;;;;;;;6.82;56.54;97255.78;8381651;28;20306;-74
2022/12/08 08:32:51;;;;;;;18.43;14.03;;;;;;;7.11;55.77;97261.47;8384180;28;20221;-74
2022/12/08 08:36:55;;;;;;;25.60;15.27;;;;;;;7.25;55.57;97259.16;8383373;28;20228;-73
2022/12/08 08:41:00;;;;;;;20.60;14.63;;;;;;;6.76;56.83;97240.56;8383924;28;20235;-73
2022/12/08 08:45:03;;;;;;;18.07;14.17;;;;;;;6.87;56.36;97268.47;8383652;28;20240;-73
2022/12/08 08:49:05;;;;;;;16.77;13.97;;;;;;;6.94;56.68;97259.59;8383784;28;20225;-74
2022/12/08 08:53:10;;;;;;;11.87;9.50;;;;;;;7.55;71.15;97259.56;8383465;28;20253;-77
2022/12/08 08:57:12;;;;;;;21.93;14.13;;;;;;;7.91;61.87;97252.88;8383782;28;20424;-77
2022/12/08 09:01:16;;;;;;;16.40;12.60;;;;;;;7.60;60.44;97241.34;8383250;28;20229;-76
2022/12/08 09:05:19;;;;;;;19.25;16.80;;;;;;;7.83;56.37;97250.63;8382777;28;20417;-79
2022/12/08 09:09:23;;;;;;;13.37;11.53;;;;;;;8.30;55.81;97257.97;8383337;28;20233;-76
2022/12/08 09:13:26;;;;;;;16.83;12.90;;;;;;;8.36;55.43;97262.81;8383051;28;20240;-77
2022/12/08 09:17:29;;;;;;;17.20;12.50;;;;;;;8.91;51.83;97243.91;8383700;28;20335;-78
2022/12/08 09:21:32;;;;;;;17.23;11.68;;;;;;;9.31;53.48;97252.25;8383161;28;20405;-76
2022/12/08 09:25:36;;;;;;;19.00;15.32;;;;;;;8.56;52.24;97248.19;8382811;28;20421;-75
2022/12/08 09:29:38;;;;;;;14.33;12.20;;;;;;;8.18;53.76;97253.34;8382565;28;20225;-76
2022/12/08 09:33:41;;;;;;;14.33;12.80;;;;;;;7.82;54.82;97246.38;8382359;28;20224;-75
2022/12/08 09:37:44;;;;;;;13.53;11.50;;;;;;;7.48;54.25;97222.09;8381389;28;20221;-76
2022/12/08 09:41:49;;;;;;;15.27;11.57;;;;;;;7.51;54.61;97213.41;8382026;28;20299;-74
2022/12/08 09:45:53;;;;;;;13.43;11.10;;;;;;;7.69;54.33;97240.94;8381476;28;20411;-73
2022/12/08 09:50:01;;;;;;;12.63;9.53;;;;;;;7.14;55.28;97244.16;8381301;28;20225;-75
2022/12/08 09:54:11;;;;;;;12.13;10.07;;;;;;;7.40;54.64;97232.72;8381559;28;20229;-75
2022/12/08 09:58:21;;;;;;;11.20;9.70;;;;;;;6.87;55.59;97235.81;8381502;28;20331;-75
2022/12/08 10:02:26;;;;;;;12.43;11.13;;;;;;;7.81;53.66;97216.38;8380223;28;20404;-76
2022/12/08 10:06:32;;;;;;;14.03;10.83;;;;;;;7.64;54.75;97219.69;8380905;28;20296;-75
2022/12/08 10:10:39;;;;;;;12.40;9.57;;;;;;;7.36;54.83;97223.47;8380790;28;20228;-74
2022/12/08 10:14:45;;;;;;;9.93;8.93;;;;;;;7.21;54.74;97213.81;8381201;28;20221;-75
2022/12/08 10:18:53;;;;;;;12.17;9.50;;;;;;;7.46;54.94;97213.59;8380995;28;20221;-74
2022/12/08 10:23:01;;;;;;;9.97;8.93;;;;;;;7.57;53.72;97202.81;8380236;28;20267;-74
2022/12/08 10:27:05;;;;;;;9.97;8.80;;;;;;;7.26;54.75;97205.91;8381067;28;20229;-74
2022/12/08 10:31:16;;;;;;;9.57;8.50;;;;;;;7.27;54.00;97192.13;8380748;28;20283;-75
2022/12/08 10:35:20;;;;;;;9.90;9.00;;;;;;;8.16;51.44;97193.28;8378979;28;20520;-75
2022/12/08 10:39:31;;;;;;;8.47;7.60;;;;;;;7.57;52.91;97188.19;8381120;28;20246;-74
2022/12/08 10:43:36;;;;;;;9.37;7.53;;;;;;;7.80;53.10;97184.56;8379341;28;20244;-74
2022/12/08 10:47:43;;;;;;;8.97;7.97;;;;;;;7.54;53.43;97174.59;8380309;28;20429;-74
2022/12/08 10:51:48;;;;;;;9.43;8.43;;;;;;;7.50;53.19;97168.78;8379263;28;20389;-74
2022/12/08 10:55:52;;;;;;;9.33;8.23;;;;;;;7.35;54.03;97166.84;8380361;28;20224;-74
2022/12/08 10:59:55;;;;;;;10.53;8.33;;;;;;;7.67;53.75;97167.16;8379576;28;20465;-75
2022/12/08 11:04:01;;;;;;;8.43;7.53;;;;;;;7.72;53.83;97168.63;8379548;28;20232;-74
2022/12/08 11:08:04;;;;;;;9.50;7.50;;;;;;;7.44;54.57;97167.31;8378991;28;20240;-75
2022/12/08 11:12:09;;;;;;;9.00;8.10;;;;;;;7.73;53.79;97148.84;8379003;28;20426;-73
2022/12/08 11:16:14;;;;;;;9.90;8.67;;;;;;;7.68;54.14;97154.22;8379949;28;20225;-74
2022/12/08 11:20:22;;;;;;;12.60;9.10;;;;;;;7.66;53.90;97153.47;8379958;28;20241;-75
2022/12/08 11:24:27;;;;;;;12.77;9.40;;;;;;;7.67;54.67;97143.97;8379899;28;20221;-75
2022/12/08 11:28:36;;;;;;;9.90;7.67;;;;;;;7.61;53.67;97135.59;8379913;28;20220;-74
2022/12/08 11:32:41;;;;;;;9.10;8.07;;;;;;;7.63;54.01;97130.38;8379806;28;20421;-75
2022/12/08 11:36:46;;;;;;;12.10;8.73;;;;;;;7.86;54.03;97123.34;8379812;28;20225;-75
2022/12/08 11:40:51;;;;;;;10.97;8.10;;;;;;;7.77;54.02;97125.44;8379561;28;20396;-74
2022/12/08 11:44:59;;;;;;;12.53;9.00;;;;;;;7.82;53.98;97126.09;8377252;28;20225;-75
2022/12/08 11:49:08;;;;;;;12.73;10.27;;;;;;;7.74;54.36;97119.59;8379323;28;20229;-75
2022/12/08 11:53:24;;;;;;;8.63;7.73;;;;;;;7.81;53.58;97121.81;8379811;28;20237;-81
2022/12/08 11:57:30;;;;;;;8.80;8.00;;;;;;;7.69;54.12;97130.13;8379378;28;20438;-74
2022/12/08 12:01:33;;;;;;;9.23;7.97;;;;;;;7.72;54.14;97118.84;8380463;28;20502;-75
2022/12/08 12:05:56;;;;;;;9.93;8.40;;;;;;;7.58;54.03;97119.47;8386083;28;20224;-76
2022/12/08 12:10:44;;;;;;;9.80;8.80;;;;;;;7.53;54.38;97116.28;8378307;28;20290;-75
2022/12/08 12:15:14;;;;;;;9.53;8.13;;;;;;;7.49;53.83;97115.56;8377954;28;20570;-75
2022/12/08 12:19:18;;;;;;;10.63;8.80;;;;;;;7.68;54.12;97105.25;8385708;28;20516;-76
2022/12/08 12:23:24;;;;;;;12.87;9.47;;;;;;;8.30;52.08;97113.50;8383823;28;20423;-75
2022/12/08 12:27:32;;;;;;;10.50;9.00;;;;;;;7.64;54.55;97106.31;8385613;28;20442;-76
2022/12/08 12:31:36;;;;;;;10.07;8.57;;;;;;;7.44;53.84;97102.91;8384925;28;20236;-76
2022/12/08 12:35:43;;;;;;;11.03;8.30;;;;;;;7.45;54.08;97103.75;8385698;28;20225;-76
2022/12/08 12:39:50;;;;;;;9.03;7.93;;;;;;;7.15;54.61;97113.66;8386105;28;20236;-75
2022/12/08 12:44:12;;;;;;;10.33;9.17;;;;;;;7.02;54.50;97077.31;8384574;28;20228;-73
2022/12/08 12:48:27;;;;;;;9.30;8.37;;;;;;;7.36;54.00;97096.41;8384291;28;20225;-74
2022/12/08 12:52:52;;;;;;;9.90;8.53;;;;;;;7.48;54.39;97098.44;8384309;28;20232;-75
2022/12/08 12:56:55;;;;;;;10.17;8.47;;;;;;;7.55;54.33;97115.28;8378324;28;20220;-78
2022/12/08 13:01:31;;;;;;;10.13;9.13;;;;;;;7.42;53.67;97106.44;8383776;28;20224;-74
2022/12/08 13:05:47;;;;;;;10.10;8.53;;;;;;;7.44;54.73;97102.06;8384245;28;20429;-75
2022/12/08 13:09:56;;;;;;;8.53;7.73;;;;;;;7.23;54.24;97090.97;8384071;28;20404;-74
2022/12/08 13:14:00;;;;;;;9.60;7.40;;;;;;;7.19;54.30;97066.28;8382352;28;20232;-75
2022/12/08 13:18:03;;;;;;;8.57;7.67;;;;;;;7.55;53.80;97089.50;8383220;28;20233;-74
2022/12/08 13:22:39;;;;;;;9.93;7.63;;;;;;;7.45;54.18;97085.72;8383153;28;20232;-75
2022/12/08 13:26:44;;;;;;;11.63;8.90;;;;;;;7.55;53.71;97073.22;8382803;28;20225;-76
2022/12/08 13:30:48;;;;;;;8.47;6.47;;;;;;;7.50;53.62;97081.19;8382802;28;20228;-75
2022/12/08 13:34:53;;;;;;;7.80;7.00;;;;;;;7.60;54.05;97066.97;8382501;28;20232;-74
2022/12/08 13:38:58;;;;;;;7.60;6.63;;;;;;;7.56;53.83;97067.19;8382059;28;20232;-75
2022/12/08 13:43:10;;;;;;;7.67;6.90;;;;;;;7.39;54.61;97067.97;8382642;28;20237;-75
2022/12/08 13:47:16;;;;;;;8.67;7.27;;;;;;;7.68;53.79;97066.59;8382042;28;20264;-75
2022/12/08 13:51:41;;;;;;;8.40;7.03;;;;;;;7.50;53.85;97070.03;8382038;28;20236;-75
2022/12/08 13:56:04;;;;;;;8.00;6.67;;;;;;;7.47;53.54;97070.19;8381347;28;20326;-75
2022/12/08 14:00:32;;;;;;;7.83;6.03;;;;;;;7.20;52.71;97078.25;8381620;28;20294;-75
2022/12/08 14:04:40;;;;;;;7.03;6.17;;;;;;;7.03;53.01;97073.84;8381262;28;20285;-75
2022/12/08 14:09:08;;;;;;;7.00;6.30;;;;;;;7.22;53.34;97074.69;8381200;28;20509;-74
2022/12/08 14:13:14;;;;;;;7.70;6.47;;;;;;;7.04;53.25;97060.94;8381369;28;20525;-74
2022/12/08 14:17:20;;;;;;;7.73;6.03;;;;;;;7.38;52.93;97077.41;8381058;28;20229;-74
2022/12/08 14:21:23;;;;;;;6.20;5.60;;;;;;;7.09;53.02;97078.72;8381314;28;20220;-74
2022/12/08 14:25:27;;;;;;;5.80;5.20;;;;;;;7.26;52.38;97075.41;8379720;28;20232;-74
2022/12/08 14:29:38;;;;;;;6.60;5.90;;;;;;;7.23;52.22;97073.81;8380004;28;20228;-75
2022/12/08 14:33:42;;;;;;;6.17;5.57;;;;;;;7.22;52.35;97066.97;8380116;28;20383;-75
2022/12/08 14:37:47;;;;;;;7.10;6.40;;;;;;;7.12;52.14;97073.47;8379909;28;20516;-75
2022/12/08 14:41:59;;;;;;;8.50;6.90;;;;;;;7.14;52.08;97076.78;8379838;28;20524;-76
2022/12/08 14:46:04;;;;;;;6.53;5.80;;;;;;;7.15;52.19;97068.16;8379040;28;20228;-75
2022/12/08 14:50:40;;;;;;;7.13;5.83;;;;;;;7.00;52.21;97072.22;8379697;28;20296;-75
2022/12/08 14:54:44;;;;;;;12.73;6.00;;;;;;;8.58;74.95;97070.84;8379172;28;20326;-79
2022/12/08 14:58:48;;;;;;;10.43;6.10;;;;;;;9.86;62.72;97072.72;8379612;28;20426;-81
2022/12/08 15:02:51;;;;;;;9.13;5.80;;;;;;;10.03;55.63;97081.25;8379391;28;20228;-78
2022/12/08 15:07:00;;;;;;;9.73;6.33;;;;;;;10.44;50.24;97073.75;8378524;28;20232;-77
2022/12/08 15:11:27;;;;;;;7.00;5.87;;;;;;;8.67;49.10;97064.41;8379229;28;20241;-73
2022/12/08 15:15:31;;;;;;;7.60;5.97;;;;;;;8.44;49.77;97070.72;8379780;28;20271;-75
2022/12/08 15:19:34;;;;;;;6.10;5.50;;;;;;;8.19;49.91;97072.75;8379341;28;20224;-74
2022/12/08 15:23:43;;;;;;;8.27;5.90;;;;;;;7.89;50.18;97071.66;8379712;28;20478;-71
2022/12/08 15:27:46;;;;;;;6.90;6.20;;;;;;;8.00;50.94;97071.97;8379294;28;20253;-71
2022/12/08 15:31:54;;;;;;;9.37;6.77;;;;;;;7.73;50.65;97046.59;8378862;28;20220;-70
2022/12/08 15:35:57;;;;;;;8.63;7.33;;;;;;;7.70;50.95;97074.25;8378752;28;20229;-71
2022/12/08 15:40:01;;;;;;;9.10;7.88;;;;;;;8.22;50.26;97077.75;8378432;28;20433;-73
2022/12/08 15:44:05;;;;;;;7.43;6.60;;;;;;;7.76;50.76;97074.78;8379128;28;20248;-72
2022/12/08 15:48:16;;;;;;;8.33;6.83;;;;;;;7.76;50.52;97072.22;8379150;28;20596;-72
2022/12/08 15:52:20;;;;;;;8.67;6.90;;;;;;;7.53;51.69;97055.25;8378934;28;20229;-72
2022/12/08 15:56:24;;;;;;;9.17;7.67;;;;;;;7.69;51.29;97077.72;8379104;28;20470;-72
2022/12/08 16:00:32;;;;;;;8.93;7.13;;;;;;;7.43;51.64;97074.63;8379390;28;20220;-71
2022/12/08 16:04:55;;;;;;;8.57;7.30;;;;;;;7.41;51.88;97066.16;8378265;28;20225;-72
2022/12/08 16:09:19;;;;;;;8.37;7.17;;;;;;;7.62;51.42;97074.63;8378609;28;20405;-74
2022/12/08 16:18:01;;;;;;;9.07;7.43;;;;;;;7.48;52.11;97064.09;8378089;28;20299;-72
2022/12/08 16:22:04;;;;;;;9.30;7.90;;;;;;;7.42;52.19;97070.38;8378480;28;20232;-72
2022/12/08 16:26:27;;;;;;;9.47;7.53;;;;;;;7.33;52.55;97074.22;8378407;28;20224;-72
2022/12/08 16:30:51;;;;;;;12.97;10.03;;;;;;;7.35;52.42;97069.84;8378595;28;20458;-72
2022/12/08 16:34:54;;;;;;;14.97;11.57;;;;;;;7.35;52.45;97076.72;8378028;28;20236;-72
2022/12/08 16:38:57;;;;;;;16.87;13.90;;;;;;;7.21;53.07;97070.44;8378446;28;20230;-73
2022/12/08 16:42:59;;;;;;;15.43;12.73;;;;;;;7.40;52.80;97072.19;8378310;28;20271;-73
2022/12/08 16:47:08;;;;;;;16.07;12.67;;;;;;;7.40;52.87;97067.03;8377992;28;20229;-72
2022/12/08 16:51:15;;;;;;;11.60;10.33;;;;;;;7.41;52.60;97066.16;8383665;28;20233;-72
2022/12/08 16:55:19;;;;;;;12.87;9.53;;;;;;;7.39;53.02;97070.53;8384087;28;20623;-72
2022/12/08 16:59:22;;;;;;;11.77;9.23;;;;;;;7.37;52.97;97077.50;8383992;28;20221;-73
2022/12/08 17:03:26;;;;;;;11.13;9.20;;;;;;;7.41;53.02;97077.28;8384313;28;20418;-72
2022/12/08 17:07:29;;;;;;;11.03;8.53;;;;;;;7.31;53.28;97064.88;8384245;28;20220;-72
2022/12/08 17:11:32;;;;;;;11.40;9.03;;;;;;;7.36;53.37;97075.81;8384100;28;20221;-72
2022/12/08 17:15:42;;;;;;;12.53;11.00;;;;;;;7.31;53.51;97068.31;8383574;28;20232;-72
2022/12/08 17:19:47;;;;;;;16.13;14.13;;;;;;;7.49;53.46;97071.78;8382958;28;20406;-73
2022/12/08 17:23:50;;;;;;;17.63;15.30;;;;;;;7.37;53.53;97075.75;8383407;28;20233;-72
2022/12/08 17:27:53;;;;;;;12.10;10.07;;;;;;;7.40;53.28;97067.03;8382376;28;20239;-71
2022/12/08 17:31:55;;;;;;;10.40;9.30;;;;;;;7.41;53.31;97066.97;8382614;28;20217;-71
2022/12/08 17:36:00;;;;;;;11.07;9.47;;;;;;;7.36;53.13;97071.50;8382600;28;20228;-72
2022/12/08 17:40:03;;;;;;;9.00;8.10;;;;;;;7.35;53.55;97067.25;8382855;28;20228;-71
2022/12/08 17:44:10;;;;;;;14.50;12.40;;;;;;;7.34;53.58;97057.84;8382517;28;20239;-73
2022/12/08 17:48:14;;;;;;;15.30;12.37;;;;;;;7.23;53.58;97050.63;8382168;28;20224;-73
2022/12/08 17:52:18;;;;;;;17.40;14.07;;;;;;;7.37;53.49;97062.88;8382171;28;20225;-73
2022/12/08 17:56:21;;;;;;;14.90;12.20;;;;;;;7.30;53.58;97074.34;8382085;28;20228;-74
2022/12/08 18:00:25;;;;;;;14.83;11.17;;;;;;;7.23;53.16;97058.34;8381796;28;20421;-74
2022/12/08 18:04:28;;;;;;;11.80;9.47;;;;;;;7.36;53.30;97068.91;8382122;28;20236;-74
2022/12/08 18:08:32;;;;;;;8.37;7.40;;;;;;;7.37;53.05;97069.78;8381820;28;20225;-74
2022/12/08 18:12:35;;;;;;;12.63;8.60;;;;;;;7.30;53.10;97065.81;8381994;28;20247;-73
2022/12/08 18:16:39;;;;;;;17.63;13.73;;;;;;;7.24;52.75;97060.00;8381755;28;20233;-73
2022/12/08 18:20:42;;;;;;;17.47;12.50;;;;;;;7.28;53.22;97057.31;8381823;28;20221;-73
2022/12/08 18:24:46;;;;;;;15.20;10.50;;;;;;;7.23;53.04;97063.50;8381571;28;20425;-73
2022/12/08 18:28:49;;;;;;;13.83;10.30;;;;;;;7.24;52.89;97059.19;8381364;28;20282;-73
2022/12/08 18:32:52;;;;;;;13.50;10.90;;;;;;;7.24;53.02;97060.00;8380892;28;20221;-74
2022/12/08 18:36:59;;;;;;;20.10;15.93;;;;;;;7.15;52.90;97052.69;8380521;28;20217;-73
2022/12/08 18:41:08;;;;;;;15.07;12.83;;;;;;;7.24;53.07;97047.13;8380736;28;20233;-73
2022/12/08 18:45:11;;;;;;;13.40;11.37;;;;;;;7.23;53.65;97045.47;8380602;28;20241;-72
2022/12/08 18:49:18;;;;;;;13.07;11.43;;;;;;;7.15;54.17;97050.13;8380277;28;20224;-72
2022/12/08 18:53:22;;;;;;;13.47;12.07;;;;;;;7.16;54.15;97046.66;8380616;28;20229;-75
2022/12/08 18:57:30;;;;;;;15.60;12.60;;;;;;;7.02;54.06;97044.69;8380677;28;20251;-74
2022/12/08 19:01:35;;;;;;;14.33;11.73;;;;;;;7.03;54.35;97041.22;8380068;28;20232;-75
2022/12/08 19:05:40;;;;;;;16.43;12.87;;;;;;;7.04;54.65;97050.63;8379690;28;20228;-74
2022/12/08 19:09:48;;;;;;;15.37;12.53;;;;;;;7.14;53.95;97037.31;8379461;28;20236;-74
2022/12/08 19:13:57;;;;;;;19.10;9.43;;;;;;;8.93;73.70;97040.66;8378131;28;20240;-74
2022/12/08 19:18:01;;;;;;;14.80;10.67;;;;;;;9.59;60.89;97044.03;8379629;28;20289;-75
2022/12/08 19:22:04;;;;;;;17.77;12.90;;;;;;;9.07;51.96;97036.50;8380350;28;20236;-73
2022/12/08 19:26:08;;;;;;;13.32;12.02;;;;;;;9.06;49.20;97040.00;8378482;28;20429;-72